sensor_id;sensor_type;location;lat;lon;timestamp;P1;durP1;ratioP1;P2;durP2;ratioP2
52180;SDS011;38158;53.338;6.514;2022-07-18T00:02:12;7.20;;;4.13;;
52180;SDS011;38158;53.338;6.514;2022-07-18T00:04:38;6.47;;;3.50;;
52180;SDS011;38158;53.338;6.514;2022-07-18T00:07:04;7.57;;;3.97;;
52180;SDS011;38158;53.338;6.514;2022-07-18T00:09:30;8.82;;;3.92;;
52180;SDS011;38158;53.338;6.514;2022-07-18T00:11:55;8.77;;;3.45;;
52180;SDS011;38158;53.338;6.514;2022-07-18T00:14:21;8.48;;;4.35;;
52180;SDS011;38158;53.338;6.514;2022-07-18T00:16:47;9.65;;;4.10;;
52180;SDS011;38158;53.338;6.514;2022-07-18T00:19:14;7.25;;;3.90;;
52180;SDS011;38158;53.338;6.514;2022-07-18T00:21:40;7.70;;;4.28;;
52180;SDS011;38158;53.338;6.514;2022-07-18T00:24:06;7.47;;;4.30;;
52180;SDS011;38158;53.338;6.514;2022-07-18T00:26:32;7.90;;;3.55;;
52180;SDS011;38158;53.338;6.514;2022-07-18T00:28:57;9.02;;;4.30;;
52180;SDS011;38158;53.338;6.514;2022-07-18T00:31:23;9.70;;;4.95;;
52180;SDS011;38158;53.338;6.514;2022-07-18T00:33:49;10.05;;;4.35;;
52180;SDS011;38158;53.338;6.514;2022-07-18T00:36:14;7.68;;;4.43;;
52180;SDS011;38158;53.338;6.514;2022-07-18T00:38:40;7.68;;;4.57;;
52180;SDS011;38158;53.338;6.514;2022-07-18T00:41:06;9.80;;;4.50;;
52180;SDS011;38158;53.338;6.514;2022-07-18T00:43:32;8.50;;;4.13;;
52180;SDS011;38158;53.338;6.514;2022-07-18T00:45:58;9.98;;;4.63;;
52180;SDS011;38158;53.338;6.514;2022-07-18T00:48:24;10.45;;;4.95;;
52180;SDS011;38158;53.338;6.514;2022-07-18T00:50:50;8.48;;;4.40;;
52180;SDS011;38158;53.338;6.514;2022-07-18T00:53:15;9.15;;;4.80;;
52180;SDS011;38158;53.338;6.514;2022-07-18T00:55:45;7.22;;;4.45;;
52180;SDS011;38158;53.338;6.514;2022-07-18T00:58:12;8.93;;;3.90;;
52180;SDS011;38158;53.338;6.514;2022-07-18T01:00:38;8.90;;;4.85;;
52180;SDS011;38158;53.338;6.514;2022-07-18T01:03:23;8.73;;;4.63;;
52180;SDS011;38158;53.338;6.514;2022-07-18T01:05:50;7.15;;;4.50;;
52180;SDS011;38158;53.338;6.514;2022-07-18T01:08:16;8.70;;;4.60;;
52180;SDS011;38158;53.338;6.514;2022-07-18T01:10:41;8.80;;;5.30;;
52180;SDS011;38158;53.338;6.514;2022-07-18T01:13:07;9.13;;;5.05;;
52180;SDS011;38158;53.338;6.514;2022-07-18T01:15:33;8.18;;;5.10;;
52180;SDS011;38158;53.338;6.514;2022-07-18T01:17:59;8.88;;;5.38;;
52180;SDS011;38158;53.338;6.514;2022-07-18T01:20:28;9.15;;;5.25;;
52180;SDS011;38158;53.338;6.514;2022-07-18T01:22:55;8.57;;;5.20;;
52180;SDS011;38158;53.338;6.514;2022-07-18T01:25:21;10.33;;;5.87;;
52180;SDS011;38158;53.338;6.514;2022-07-18T01:27:47;12.93;;;5.15;;
52180;SDS011;38158;53.338;6.514;2022-07-18T01:30:13;8.05;;;5.40;;
52180;SDS011;38158;53.338;6.514;2022-07-18T01:32:40;10.13;;;5.63;;
52180;SDS011;38158;53.338;6.514;2022-07-18T01:35:06;8.60;;;6.05;;
52180;SDS011;38158;53.338;6.514;2022-07-18T01:37:32;8.23;;;5.30;;
52180;SDS011;38158;53.338;6.514;2022-07-18T01:39:58;9.50;;;6.40;;
52180;SDS011;38158;53.338;6.514;2022-07-18T01:42:24;11.20;;;6.50;;
52180;SDS011;38158;53.338;6.514;2022-07-18T01:44:49;9.82;;;6.38;;
52180;SDS011;38158;53.338;6.514;2022-07-18T01:47:15;7.78;;;5.22;;
52180;SDS011;38158;53.338;6.514;2022-07-18T01:49:41;9.45;;;5.70;;
52180;SDS011;38158;53.338;6.514;2022-07-18T01:52:08;9.13;;;5.30;;
52180;SDS011;38158;53.338;6.514;2022-07-18T01:54:35;10.50;;;6.10;;
52180;SDS011;38158;53.338;6.514;2022-07-18T01:57:02;9.10;;;5.57;;
52180;SDS011;38158;53.338;6.514;2022-07-18T02:01:54;9.82;;;5.30;;
52180;SDS011;38158;53.338;6.514;2022-07-18T02:04:20;8.60;;;5.38;;
52180;SDS011;38158;53.338;6.514;2022-07-18T02:07:06;13.32;;;6.40;;
52180;SDS011;38158;53.338;6.514;2022-07-18T02:09:32;11.70;;;6.35;;
52180;SDS011;38158;53.338;6.514;2022-07-18T02:11:58;9.45;;;5.88;;
52180;SDS011;38158;53.338;6.514;2022-07-18T02:14:23;10.27;;;5.75;;
52180;SDS011;38158;53.338;6.514;2022-07-18T02:16:49;9.13;;;4.90;;
52180;SDS011;38158;53.338;6.514;2022-07-18T02:19:15;9.60;;;5.03;;
52180;SDS011;38158;53.338;6.514;2022-07-18T02:21:40;11.73;;;5.70;;
52180;SDS011;38158;53.338;6.514;2022-07-18T02:24:06;12.70;;;6.22;;
52180;SDS011;38158;53.338;6.514;2022-07-18T02:26:32;12.07;;;6.30;;
52180;SDS011;38158;53.338;6.514;2022-07-18T02:28:59;11.63;;;5.45;;
52180;SDS011;38158;53.338;6.514;2022-07-18T02:31:25;13.60;;;6.20;;
52180;SDS011;38158;53.338;6.514;2022-07-18T02:33:51;10.07;;;5.93;;
52180;SDS011;38158;53.338;6.514;2022-07-18T02:36:16;12.13;;;6.45;;
52180;SDS011;38158;53.338;6.514;2022-07-18T02:38:42;10.55;;;5.82;;
52180;SDS011;38158;53.338;6.514;2022-07-18T02:41:07;9.68;;;5.60;;
52180;SDS011;38158;53.338;6.514;2022-07-18T02:43:33;9.90;;;5.93;;
52180;SDS011;38158;53.338;6.514;2022-07-18T02:45:59;13.05;;;6.70;;
52180;SDS011;38158;53.338;6.514;2022-07-18T02:48:24;11.68;;;6.10;;
52180;SDS011;38158;53.338;6.514;2022-07-18T02:50:50;9.82;;;6.00;;
52180;SDS011;38158;53.338;6.514;2022-07-18T02:53:16;10.00;;;5.78;;
52180;SDS011;38158;53.338;6.514;2022-07-18T02:55:44;10.50;;;6.07;;
52180;SDS011;38158;53.338;6.514;2022-07-18T02:58:10;10.00;;;6.15;;
52180;SDS011;38158;53.338;6.514;2022-07-18T03:00:35;9.52;;;5.63;;
52180;SDS011;38158;53.338;6.514;2022-07-18T03:03:01;10.85;;;6.35;;
52180;SDS011;38158;53.338;6.514;2022-07-18T03:05:27;13.65;;;6.45;;
52180;SDS011;38158;53.338;6.514;2022-07-18T03:07:52;12.77;;;5.57;;
52180;SDS011;38158;53.338;6.514;2022-07-18T03:10:18;10.00;;;5.70;;
52180;SDS011;38158;53.338;6.514;2022-07-18T03:12:44;9.90;;;5.88;;
52180;SDS011;38158;53.338;6.514;2022-07-18T03:15:09;12.20;;;5.88;;
52180;SDS011;38158;53.338;6.514;2022-07-18T03:17:35;11.48;;;6.20;;
52180;SDS011;38158;53.338;6.514;2022-07-18T03:20:01;12.82;;;6.57;;
52180;SDS011;38158;53.338;6.514;2022-07-18T03:22:27;9.85;;;6.05;;
52180;SDS011;38158;53.338;6.514;2022-07-18T03:24:53;9.38;;;5.93;;
52180;SDS011;38158;53.338;6.514;2022-07-18T03:27:19;8.98;;;5.40;;
52180;SDS011;38158;53.338;6.514;2022-07-18T03:29:44;13.52;;;5.80;;
52180;SDS011;38158;53.338;6.514;2022-07-18T03:32:10;10.80;;;5.88;;
52180;SDS011;38158;53.338;6.514;2022-07-18T03:34:36;9.93;;;5.70;;
52180;SDS011;38158;53.338;6.514;2022-07-18T03:37:02;10.57;;;5.28;;
52180;SDS011;38158;53.338;6.514;2022-07-18T03:39:27;12.10;;;5.40;;
52180;SDS011;38158;53.338;6.514;2022-07-18T03:41:53;10.52;;;5.57;;
52180;SDS011;38158;53.338;6.514;2022-07-18T03:44:19;15.52;;;5.38;;
52180;SDS011;38158;53.338;6.514;2022-07-18T03:46:44;10.70;;;5.47;;
52180;SDS011;38158;53.338;6.514;2022-07-18T03:49:10;8.93;;;5.75;;
52180;SDS011;38158;53.338;6.514;2022-07-18T03:51:36;10.88;;;5.45;;
52180;SDS011;38158;53.338;6.514;2022-07-18T03:54:01;8.98;;;4.85;;
52180;SDS011;38158;53.338;6.514;2022-07-18T03:56:27;10.15;;;5.40;;
52180;SDS011;38158;53.338;6.514;2022-07-18T03:58:53;13.88;;;5.82;;
52180;SDS011;38158;53.338;6.514;2022-07-18T04:01:18;10.02;;;5.43;;
52180;SDS011;38158;53.338;6.514;2022-07-18T04:03:44;9.52;;;5.28;;
52180;SDS011;38158;53.338;6.514;2022-07-18T04:06:10;11.48;;;4.97;;
52180;SDS011;38158;53.338;6.514;2022-07-18T04:08:35;10.73;;;4.70;;
52180;SDS011;38158;53.338;6.514;2022-07-18T04:11:01;9.50;;;5.20;;
52180;SDS011;38158;53.338;6.514;2022-07-18T04:13:27;8.20;;;4.53;;
52180;SDS011;38158;53.338;6.514;2022-07-18T04:15:52;9.10;;;4.88;;
52180;SDS011;38158;53.338;6.514;2022-07-18T04:18:18;10.07;;;5.40;;
52180;SDS011;38158;53.338;6.514;2022-07-18T04:20:44;10.35;;;4.57;;
52180;SDS011;38158;53.338;6.514;2022-07-18T04:23:10;9.07;;;4.45;;
52180;SDS011;38158;53.338;6.514;2022-07-18T04:25:39;8.37;;;4.87;;
52180;SDS011;38158;53.338;6.514;2022-07-18T04:28:07;9.80;;;4.35;;
52180;SDS011;38158;53.338;6.514;2022-07-18T04:30:34;8.75;;;5.10;;
52180;SDS011;38158;53.338;6.514;2022-07-18T04:33:04;11.37;;;4.80;;
52180;SDS011;38158;53.338;6.514;2022-07-18T04:35:31;7.25;;;4.20;;
52180;SDS011;38158;53.338;6.514;2022-07-18T04:37:56;7.70;;;4.43;;
52180;SDS011;38158;53.338;6.514;2022-07-18T04:40:22;11.18;;;4.80;;
52180;SDS011;38158;53.338;6.514;2022-07-18T04:42:49;10.93;;;4.88;;
52180;SDS011;38158;53.338;6.514;2022-07-18T04:45:15;11.65;;;4.78;;
52180;SDS011;38158;53.338;6.514;2022-07-18T04:47:41;10.75;;;4.28;;
52180;SDS011;38158;53.338;6.514;2022-07-18T04:50:07;9.07;;;4.40;;
52180;SDS011;38158;53.338;6.514;2022-07-18T04:52:43;8.90;;;4.45;;
52180;SDS011;38158;53.338;6.514;2022-07-18T04:55:10;8.00;;;4.30;;
52180;SDS011;38158;53.338;6.514;2022-07-18T04:57:36;10.40;;;4.93;;
52180;SDS011;38158;53.338;6.514;2022-07-18T05:00:04;9.73;;;4.80;;
52180;SDS011;38158;53.338;6.514;2022-07-18T05:02:31;10.35;;;4.28;;
52180;SDS011;38158;53.338;6.514;2022-07-18T05:04:57;7.63;;;4.40;;
52180;SDS011;38158;53.338;6.514;2022-07-18T05:07:23;11.73;;;5.22;;
52180;SDS011;38158;53.338;6.514;2022-07-18T05:09:48;8.07;;;4.70;;
52180;SDS011;38158;53.338;6.514;2022-07-18T05:12:14;10.95;;;4.50;;
52180;SDS011;38158;53.338;6.514;2022-07-18T05:14:40;8.20;;;4.40;;
52180;SDS011;38158;53.338;6.514;2022-07-18T05:17:05;8.52;;;4.60;;
52180;SDS011;38158;53.338;6.514;2022-07-18T05:19:31;10.60;;;4.78;;
52180;SDS011;38158;53.338;6.514;2022-07-18T05:21:57;7.43;;;4.07;;
52180;SDS011;38158;53.338;6.514;2022-07-18T05:24:22;10.40;;;5.07;;
52180;SDS011;38158;53.338;6.514;2022-07-18T05:26:48;7.93;;;4.13;;
52180;SDS011;38158;53.338;6.514;2022-07-18T05:29:14;7.78;;;3.83;;
52180;SDS011;38158;53.338;6.514;2022-07-18T05:31:40;8.40;;;3.92;;
52180;SDS011;38158;53.338;6.514;2022-07-18T05:34:06;8.63;;;4.07;;
52180;SDS011;38158;53.338;6.514;2022-07-18T05:36:33;10.50;;;4.25;;
52180;SDS011;38158;53.338;6.514;2022-07-18T05:38:58;8.57;;;4.22;;
52180;SDS011;38158;53.338;6.514;2022-07-18T05:41:24;8.77;;;4.25;;
52180;SDS011;38158;53.338;6.514;2022-07-18T05:43:50;8.13;;;4.15;;
52180;SDS011;38158;53.338;6.514;2022-07-18T05:46:16;6.55;;;3.45;;
52180;SDS011;38158;53.338;6.514;2022-07-18T05:48:41;6.95;;;3.58;;
52180;SDS011;38158;53.338;6.514;2022-07-18T05:51:07;8.43;;;3.20;;
52180;SDS011;38158;53.338;6.514;2022-07-18T05:53:33;7.88;;;3.30;;
52180;SDS011;38158;53.338;6.514;2022-07-18T05:55:58;8.60;;;4.10;;
52180;SDS011;38158;53.338;6.514;2022-07-18T05:58:24;6.82;;;3.47;;
52180;SDS011;38158;53.338;6.514;2022-07-18T06:00:50;10.60;;;3.55;;
52180;SDS011;38158;53.338;6.514;2022-07-18T06:03:15;8.43;;;3.42;;
52180;SDS011;38158;53.338;6.514;2022-07-18T06:05:41;6.93;;;2.65;;
52180;SDS011;38158;53.338;6.514;2022-07-18T06:08:07;11.63;;;3.08;;
52180;SDS011;38158;53.338;6.514;2022-07-18T06:10:33;8.52;;;2.88;;
52180;SDS011;38158;53.338;6.514;2022-07-18T06:12:59;12.48;;;2.83;;
52180;SDS011;38158;53.338;6.514;2022-07-18T06:15:24;6.75;;;2.15;;
52180;SDS011;38158;53.338;6.514;2022-07-18T06:17:50;6.13;;;2.85;;
52180;SDS011;38158;53.338;6.514;2022-07-18T06:20:16;5.55;;;2.22;;
52180;SDS011;38158;53.338;6.514;2022-07-18T06:22:42;5.72;;;2.00;;
52180;SDS011;38158;53.338;6.514;2022-07-18T06:25:08;4.97;;;1.90;;
52180;SDS011;38158;53.338;6.514;2022-07-18T06:27:35;9.10;;;2.70;;
52180;SDS011;38158;53.338;6.514;2022-07-18T06:30:01;7.47;;;2.33;;
52180;SDS011;38158;53.338;6.514;2022-07-18T06:32:31;4.03;;;2.10;;
52180;SDS011;38158;53.338;6.514;2022-07-18T06:34:58;5.82;;;2.38;;
52180;SDS011;38158;53.338;6.514;2022-07-18T06:37:23;8.48;;;3.13;;
52180;SDS011;38158;53.338;6.514;2022-07-18T06:39:49;4.90;;;1.95;;
52180;SDS011;38158;53.338;6.514;2022-07-18T06:42:15;7.18;;;2.17;;
52180;SDS011;38158;53.338;6.514;2022-07-18T06:44:40;5.53;;;2.40;;
52180;SDS011;38158;53.338;6.514;2022-07-18T06:47:06;5.05;;;2.38;;
52180;SDS011;38158;53.338;6.514;2022-07-18T06:49:32;7.35;;;2.70;;
52180;SDS011;38158;53.338;6.514;2022-07-18T06:51:57;6.28;;;2.45;;
52180;SDS011;38158;53.338;6.514;2022-07-18T06:54:23;5.00;;;2.10;;
52180;SDS011;38158;53.338;6.514;2022-07-18T06:56:53;6.95;;;2.22;;
52180;SDS011;38158;53.338;6.514;2022-07-18T06:59:19;10.23;;;3.08;;
52180;SDS011;38158;53.338;6.514;2022-07-18T07:01:45;8.38;;;2.45;;
52180;SDS011;38158;53.338;6.514;2022-07-18T07:04:11;8.73;;;2.63;;
52180;SDS011;38158;53.338;6.514;2022-07-18T07:06:37;10.23;;;3.10;;
52180;SDS011;38158;53.338;6.514;2022-07-18T07:09:03;4.97;;;2.05;;
52180;SDS011;38158;53.338;6.514;2022-07-18T07:11:30;6.35;;;2.42;;
52180;SDS011;38158;53.338;6.514;2022-07-18T07:13:56;7.63;;;2.38;;
52180;SDS011;38158;53.338;6.514;2022-07-18T07:16:21;5.45;;;2.08;;
52180;SDS011;38158;53.338;6.514;2022-07-18T07:18:47;5.80;;;2.08;;
52180;SDS011;38158;53.338;6.514;2022-07-18T07:21:13;5.50;;;2.35;;
52180;SDS011;38158;53.338;6.514;2022-07-18T07:23:38;3.88;;;2.03;;
52180;SDS011;38158;53.338;6.514;2022-07-18T07:28:32;9.02;;;2.03;;
52180;SDS011;38158;53.338;6.514;2022-07-18T07:30:58;6.15;;;1.80;;
52180;SDS011;38158;53.338;6.514;2022-07-18T07:33:23;6.18;;;2.17;;
52180;SDS011;38158;53.338;6.514;2022-07-18T07:35:49;7.57;;;1.80;;
52180;SDS011;38158;53.338;6.514;2022-07-18T07:38:15;5.03;;;1.80;;
52180;SDS011;38158;53.338;6.514;2022-07-18T07:40:44;5.97;;;2.10;;
52180;SDS011;38158;53.338;6.514;2022-07-18T07:43:12;7.45;;;2.22;;
52180;SDS011;38158;53.338;6.514;2022-07-18T07:45:39;5.32;;;1.63;;
52180;SDS011;38158;53.338;6.514;2022-07-18T07:48:06;5.50;;;1.60;;
52180;SDS011;38158;53.338;6.514;2022-07-18T07:50:32;8.32;;;2.00;;
52180;SDS011;38158;53.338;6.514;2022-07-18T07:52:58;4.43;;;1.38;;
52180;SDS011;38158;53.338;6.514;2022-07-18T07:55:24;6.43;;;2.00;;
52180;SDS011;38158;53.338;6.514;2022-07-18T07:57:50;9.38;;;1.73;;
52180;SDS011;38158;53.338;6.514;2022-07-18T08:00:16;4.70;;;1.40;;
52180;SDS011;38158;53.338;6.514;2022-07-18T08:02:52;6.20;;;1.83;;
52180;SDS011;38158;53.338;6.514;2022-07-18T08:05:21;5.38;;;1.67;;
52180;SDS011;38158;53.338;6.514;2022-07-18T08:07:47;5.40;;;2.00;;
52180;SDS011;38158;53.338;6.514;2022-07-18T08:10:14;6.80;;;1.95;;
52180;SDS011;38158;53.338;6.514;2022-07-18T08:12:40;8.55;;;1.70;;
52180;SDS011;38158;53.338;6.514;2022-07-18T08:15:06;5.70;;;1.58;;
52180;SDS011;38158;53.338;6.514;2022-07-18T08:17:32;5.55;;;1.52;;
52180;SDS011;38158;53.338;6.514;2022-07-18T08:19:58;6.75;;;1.83;;
52180;SDS011;38158;53.338;6.514;2022-07-18T08:22:24;6.03;;;1.73;;
52180;SDS011;38158;53.338;6.514;2022-07-18T08:24:50;6.05;;;1.73;;
52180;SDS011;38158;53.338;6.514;2022-07-18T08:27:15;4.30;;;1.45;;
52180;SDS011;38158;53.338;6.514;2022-07-18T08:29:41;10.68;;;1.90;;
52180;SDS011;38158;53.338;6.514;2022-07-18T08:32:07;8.20;;;1.35;;
52180;SDS011;38158;53.338;6.514;2022-07-18T08:34:33;9.02;;;1.63;;
52180;SDS011;38158;53.338;6.514;2022-07-18T08:36:59;4.88;;;1.73;;
52180;SDS011;38158;53.338;6.514;2022-07-18T08:39:24;4.90;;;1.27;;
52180;SDS011;38158;53.338;6.514;2022-07-18T08:41:50;8.70;;;1.83;;
52180;SDS011;38158;53.338;6.514;2022-07-18T08:44:16;7.43;;;1.67;;
52180;SDS011;38158;53.338;6.514;2022-07-18T08:46:48;5.10;;;1.70;;
52180;SDS011;38158;53.338;6.514;2022-07-18T08:49:15;6.25;;;1.73;;
52180;SDS011;38158;53.338;6.514;2022-07-18T08:51:44;9.35;;;2.60;;
52180;SDS011;38158;53.338;6.514;2022-07-18T08:54:10;8.23;;;1.77;;
52180;SDS011;38158;53.338;6.514;2022-07-18T08:56:36;6.88;;;1.75;;
52180;SDS011;38158;53.338;6.514;2022-07-18T08:59:02;4.50;;;1.38;;
52180;SDS011;38158;53.338;6.514;2022-07-18T09:01:29;3.88;;;1.30;;
52180;SDS011;38158;53.338;6.514;2022-07-18T09:06:46;3.65;;;1.15;;
52180;SDS011;38158;53.338;6.514;2022-07-18T09:09:14;18.27;;;2.08;;
52180;SDS011;38158;53.338;6.514;2022-07-18T09:11:50;8.65;;;1.42;;
52180;SDS011;38158;53.338;6.514;2022-07-18T09:17:06;8.50;;;1.60;;
52180;SDS011;38158;53.338;6.514;2022-07-18T09:19:36;7.50;;;1.30;;
52180;SDS011;38158;53.338;6.514;2022-07-18T09:22:11;8.82;;;1.70;;
52180;SDS011;38158;53.338;6.514;2022-07-18T09:30:18;6.63;;;1.30;;
52180;SDS011;38158;53.338;6.514;2022-07-18T09:33:09;8.75;;;1.50;;
52180;SDS011;38158;53.338;6.514;2022-07-18T09:35:36;4.82;;;1.27;;
52180;SDS011;38158;53.338;6.514;2022-07-18T09:38:11;10.48;;;1.80;;
52180;SDS011;38158;53.338;6.514;2022-07-18T09:40:42;8.35;;;1.60;;
52180;SDS011;38158;53.338;6.514;2022-07-18T09:43:19;5.45;;;1.63;;
52180;SDS011;38158;53.338;6.514;2022-07-18T09:45:49;5.93;;;1.27;;
52180;SDS011;38158;53.338;6.514;2022-07-18T09:50:50;5.65;;;1.30;;
52180;SDS011;38158;53.338;6.514;2022-07-18T09:53:24;4.63;;;1.65;;
52180;SDS011;38158;53.338;6.514;2022-07-18T09:55:55;4.50;;;1.50;;
52180;SDS011;38158;53.338;6.514;2022-07-18T09:58:26;9.35;;;2.13;;
52180;SDS011;38158;53.338;6.514;2022-07-18T10:00:54;6.40;;;1.45;;
52180;SDS011;38158;53.338;6.514;2022-07-18T10:03:21;7.63;;;1.40;;
52180;SDS011;38158;53.338;6.514;2022-07-18T10:05:48;5.32;;;1.40;;
52180;SDS011;38158;53.338;6.514;2022-07-18T10:08:16;3.35;;;1.35;;
52180;SDS011;38158;53.338;6.514;2022-07-18T10:10:48;5.55;;;1.40;;
52180;SDS011;38158;53.338;6.514;2022-07-18T10:13:16;6.80;;;1.30;;
52180;SDS011;38158;53.338;6.514;2022-07-18T10:15:44;5.50;;;1.70;;
52180;SDS011;38158;53.338;6.514;2022-07-18T10:18:15;7.93;;;1.55;;
52180;SDS011;38158;53.338;6.514;2022-07-18T10:20:47;6.00;;;1.67;;
52180;SDS011;38158;53.338;6.514;2022-07-18T10:26:29;7.88;;;1.60;;
52180;SDS011;38158;53.338;6.514;2022-07-18T10:28:39;5.57;;;1.40;;
52180;SDS011;38158;53.338;6.514;2022-07-18T10:31:25;6.47;;;1.40;;
52180;SDS011;38158;53.338;6.514;2022-07-18T10:36:33;4.13;;;1.63;;
52180;SDS011;38158;53.338;6.514;2022-07-18T10:39:09;6.03;;;1.73;;
52180;SDS011;38158;53.338;6.514;2022-07-18T11:00:07;7.82;;;2.67;;
52180;SDS011;38158;53.338;6.514;2022-07-18T11:05:31;7.03;;;2.38;;
52180;SDS011;38158;53.338;6.514;2022-07-18T11:21:19;5.10;;;2.28;;
52180;SDS011;38158;53.338;6.514;2022-07-18T11:26:26;6.28;;;2.30;;
52180;SDS011;38158;53.338;6.514;2022-07-18T11:29:05;6.78;;;2.78;;
52180;SDS011;38158;53.338;6.514;2022-07-18T11:34:16;5.40;;;3.00;;
52180;SDS011;38158;53.338;6.514;2022-07-18T11:36:43;5.63;;;2.65;;
52180;SDS011;38158;53.338;6.514;2022-07-18T11:39:11;5.32;;;2.70;;
52180;SDS011;38158;53.338;6.514;2022-07-18T11:41:39;8.45;;;2.85;;
52180;SDS011;38158;53.338;6.514;2022-07-18T11:44:11;7.53;;;2.88;;
52180;SDS011;38158;53.338;6.514;2022-07-18T11:46:46;6.15;;;2.60;;
52180;SDS011;38158;53.338;6.514;2022-07-18T11:49:12;8.07;;;2.47;;
52180;SDS011;38158;53.338;6.514;2022-07-18T11:51:39;14.50;;;3.40;;
52180;SDS011;38158;53.338;6.514;2022-07-18T11:54:07;8.02;;;3.15;;
52180;SDS011;38158;53.338;6.514;2022-07-18T11:56:34;8.73;;;3.30;;
52180;SDS011;38158;53.338;6.514;2022-07-18T11:59:16;8.82;;;2.92;;
52180;SDS011;38158;53.338;6.514;2022-07-18T12:01:42;9.23;;;3.13;;
52180;SDS011;38158;53.338;6.514;2022-07-18T12:04:21;5.43;;;2.50;;
52180;SDS011;38158;53.338;6.514;2022-07-18T12:09:51;6.70;;;2.50;;
52180;SDS011;38158;53.338;6.514;2022-07-18T12:14:58;8.35;;;3.15;;
52180;SDS011;38158;53.338;6.514;2022-07-18T12:17:25;5.20;;;2.80;;
52180;SDS011;38158;53.338;6.514;2022-07-18T12:19:51;6.03;;;2.88;;
52180;SDS011;38158;53.338;6.514;2022-07-18T12:22:17;4.43;;;2.28;;
52180;SDS011;38158;53.338;6.514;2022-07-18T12:37:35;7.32;;;2.58;;
52180;SDS011;38158;53.338;6.514;2022-07-18T12:40:03;6.00;;;3.10;;
52180;SDS011;38158;53.338;6.514;2022-07-18T12:42:42;10.43;;;3.20;;
52180;SDS011;38158;53.338;6.514;2022-07-18T12:45:08;5.15;;;2.78;;
52180;SDS011;38158;53.338;6.514;2022-07-18T12:47:36;6.93;;;3.20;;
52180;SDS011;38158;53.338;6.514;2022-07-18T12:50:04;8.07;;;3.00;;
52180;SDS011;38158;53.338;6.514;2022-07-18T12:52:30;8.85;;;3.35;;
52180;SDS011;38158;53.338;6.514;2022-07-18T12:54:57;7.93;;;3.45;;
52180;SDS011;38158;53.338;6.514;2022-07-18T12:57:22;5.93;;;2.63;;
52180;SDS011;38158;53.338;6.514;2022-07-18T12:59:48;9.27;;;2.97;;
52180;SDS011;38158;53.338;6.514;2022-07-18T13:02:15;7.80;;;2.75;;
52180;SDS011;38158;53.338;6.514;2022-07-18T13:04:42;6.38;;;2.60;;
52180;SDS011;38158;53.338;6.514;2022-07-18T13:07:08;5.20;;;2.78;;
52180;SDS011;38158;53.338;6.514;2022-07-18T13:09:34;5.32;;;2.75;;
52180;SDS011;38158;53.338;6.514;2022-07-18T13:11:59;5.43;;;2.57;;
52180;SDS011;38158;53.338;6.514;2022-07-18T13:14:26;7.07;;;2.83;;
52180;SDS011;38158;53.338;6.514;2022-07-18T13:16:52;5.72;;;2.55;;
52180;SDS011;38158;53.338;6.514;2022-07-18T13:19:18;7.55;;;2.83;;
52180;SDS011;38158;53.338;6.514;2022-07-18T13:21:45;5.18;;;2.60;;
52180;SDS011;38158;53.338;6.514;2022-07-18T13:24:11;6.15;;;2.70;;
52180;SDS011;38158;53.338;6.514;2022-07-18T13:29:03;9.82;;;2.38;;
52180;SDS011;38158;53.338;6.514;2022-07-18T13:31:30;7.25;;;3.05;;
52180;SDS011;38158;53.338;6.514;2022-07-18T13:33:56;5.95;;;2.58;;
52180;SDS011;38158;53.338;6.514;2022-07-18T13:36:22;7.05;;;3.03;;
52180;SDS011;38158;53.338;6.514;2022-07-18T13:38:47;7.80;;;3.20;;
52180;SDS011;38158;53.338;6.514;2022-07-18T13:41:13;5.75;;;3.08;;
52180;SDS011;38158;53.338;6.514;2022-07-18T13:43:39;5.07;;;3.00;;
52180;SDS011;38158;53.338;6.514;2022-07-18T13:46:06;6.03;;;3.03;;
52180;SDS011;38158;53.338;6.514;2022-07-18T13:48:32;8.18;;;3.25;;
52180;SDS011;38158;53.338;6.514;2022-07-18T13:50:58;6.72;;;3.15;;
52180;SDS011;38158;53.338;6.514;2022-07-18T13:53:24;5.60;;;3.30;;
52180;SDS011;38158;53.338;6.514;2022-07-18T13:55:50;9.63;;;3.08;;
52180;SDS011;38158;53.338;6.514;2022-07-18T13:58:16;8.10;;;3.13;;
52180;SDS011;38158;53.338;6.514;2022-07-18T14:00:42;8.83;;;3.30;;
52180;SDS011;38158;53.338;6.514;2022-07-18T14:03:09;6.25;;;3.20;;
52180;SDS011;38158;53.338;6.514;2022-07-18T14:05:35;7.35;;;3.85;;
52180;SDS011;38158;53.338;6.514;2022-07-18T14:08:02;8.20;;;3.33;;
52180;SDS011;38158;53.338;6.514;2022-07-18T14:10:28;9.93;;;3.40;;
52180;SDS011;38158;53.338;6.514;2022-07-18T14:12:54;10.70;;;3.37;;
52180;SDS011;38158;53.338;6.514;2022-07-18T14:15:20;6.68;;;2.75;;
52180;SDS011;38158;53.338;6.514;2022-07-18T14:17:45;6.50;;;3.10;;
52180;SDS011;38158;53.338;6.514;2022-07-18T14:20:12;9.90;;;3.40;;
52180;SDS011;38158;53.338;6.514;2022-07-18T14:22:38;9.65;;;3.28;;
52180;SDS011;38158;53.338;6.514;2022-07-18T14:25:05;5.13;;;2.75;;
52180;SDS011;38158;53.338;6.514;2022-07-18T14:27:32;8.98;;;3.40;;
52180;SDS011;38158;53.338;6.514;2022-07-18T14:29:58;6.20;;;2.70;;
52180;SDS011;38158;53.338;6.514;2022-07-18T14:32:24;6.00;;;3.13;;
52180;SDS011;38158;53.338;6.514;2022-07-18T14:34:51;5.55;;;2.60;;
52180;SDS011;38158;53.338;6.514;2022-07-18T14:37:17;7.32;;;3.33;;
52180;SDS011;38158;53.338;6.514;2022-07-18T14:39:43;7.63;;;3.33;;
52180;SDS011;38158;53.338;6.514;2022-07-18T14:42:08;8.13;;;3.13;;
52180;SDS011;38158;53.338;6.514;2022-07-18T14:44:35;6.03;;;2.85;;
52180;SDS011;38158;53.338;6.514;2022-07-18T14:47:01;7.80;;;3.00;;
52180;SDS011;38158;53.338;6.514;2022-07-18T14:49:27;5.03;;;2.65;;
52180;SDS011;38158;53.338;6.514;2022-07-18T14:51:52;11.20;;;3.07;;
52180;SDS011;38158;53.338;6.514;2022-07-18T14:54:18;9.80;;;3.43;;
52180;SDS011;38158;53.338;6.514;2022-07-18T14:56:44;5.93;;;3.20;;
52180;SDS011;38158;53.338;6.514;2022-07-18T14:59:09;6.23;;;3.13;;
52180;SDS011;38158;53.338;6.514;2022-07-18T15:01:35;4.20;;;2.40;;
52180;SDS011;38158;53.338;6.514;2022-07-18T15:04:01;5.87;;;3.20;;
52180;SDS011;38158;53.338;6.514;2022-07-18T15:06:26;5.00;;;2.80;;
52180;SDS011;38158;53.338;6.514;2022-07-18T15:08:52;5.75;;;3.08;;
52180;SDS011;38158;53.338;6.514;2022-07-18T15:11:18;5.30;;;2.83;;
52180;SDS011;38158;53.338;6.514;2022-07-18T15:13:46;14.25;;;3.58;;
52180;SDS011;38158;53.338;6.514;2022-07-18T15:16:12;10.00;;;4.82;;
52180;SDS011;38158;53.338;6.514;2022-07-18T15:18:38;7.50;;;4.80;;
52180;SDS011;38158;53.338;6.514;2022-07-18T15:21:03;8.40;;;4.23;;
52180;SDS011;38158;53.338;6.514;2022-07-18T15:23:29;6.55;;;3.55;;
52180;SDS011;38158;53.338;6.514;2022-07-18T15:25:55;4.77;;;2.67;;
52180;SDS011;38158;53.338;6.514;2022-07-18T15:28:21;7.93;;;3.67;;
52180;SDS011;38158;53.338;6.514;2022-07-18T15:30:48;6.93;;;2.75;;
52180;SDS011;38158;53.338;6.514;2022-07-18T15:33:15;7.78;;;2.38;;
52180;SDS011;38158;53.338;6.514;2022-07-18T15:35:41;6.13;;;2.90;;
52180;SDS011;38158;53.338;6.514;2022-07-18T15:38:07;8.13;;;2.67;;
52180;SDS011;38158;53.338;6.514;2022-07-18T15:40:33;5.63;;;2.28;;
52180;SDS011;38158;53.338;6.514;2022-07-18T15:42:58;8.33;;;3.00;;
52180;SDS011;38158;53.338;6.514;2022-07-18T15:45:24;5.87;;;2.43;;
52180;SDS011;38158;53.338;6.514;2022-07-18T15:47:50;7.38;;;2.50;;
52180;SDS011;38158;53.338;6.514;2022-07-18T15:50:16;4.97;;;2.60;;
52180;SDS011;38158;53.338;6.514;2022-07-18T15:52:42;5.53;;;2.40;;
52180;SDS011;38158;53.338;6.514;2022-07-18T15:55:08;4.75;;;2.72;;
52180;SDS011;38158;53.338;6.514;2022-07-18T15:57:34;6.35;;;2.40;;
52180;SDS011;38158;53.338;6.514;2022-07-18T16:00:00;5.60;;;2.63;;
52180;SDS011;38158;53.338;6.514;2022-07-18T16:04:51;5.25;;;2.47;;
52180;SDS011;38158;53.338;6.514;2022-07-18T16:07:17;5.77;;;2.73;;
52180;SDS011;38158;53.338;6.514;2022-07-18T16:09:43;10.03;;;2.50;;
52180;SDS011;38158;53.338;6.514;2022-07-18T16:12:09;6.80;;;2.57;;